createdAt,value
2018-11-04T00:00:06.193Z,9.90
2018-11-04T00:02:33.365Z,9.90
2018-11-04T00:05:00.561Z,9.90
2018-11-04T00:07:27.853Z,10.00
2018-11-04T00:09:55.031Z,10.00
2018-11-04T00:12:22.221Z,10.00
2018-11-04T00:14:49.429Z,10.00
2018-11-04T00:17:16.609Z,10.00
2018-11-04T00:19:43.789Z,9.90
2018-11-04T00:22:11.081Z,10.00
2018-11-04T00:24:38.253Z,9.90
2018-11-04T00:27:05.542Z,9.90
2018-11-04T00:29:32.940Z,9.90
2018-11-04T00:32:00.079Z,9.90
2018-11-04T00:34:33.943Z,9.90
2018-11-04T00:37:01.262Z,9.90
2018-11-04T00:39:28.450Z,9.90
2018-11-04T00:41:55.617Z,9.80
2018-11-04T00:44:22.798Z,9.80
2018-11-04T00:46:49.982Z,9.80
2018-11-04T00:49:17.165Z,9.90
2018-11-04T00:51:44.330Z,10.00
2018-11-04T00:54:11.535Z,10.00
2018-11-04T00:56:38.726Z,10.00
2018-11-04T00:59:05.908Z,9.90
2018-11-04T01:01:33.132Z,9.80
2018-11-04T01:04:00.296Z,9.80
2018-11-04T01:06:27.468Z,9.90
2018-11-04T01:08:54.687Z,9.90
2018-11-04T01:11:21.843Z,9.90
2018-11-04T01:13:49.013Z,9.80
2018-11-04T01:16:16.184Z,9.80
2018-11-04T01:18:43.344Z,9.80
2018-11-04T01:21:10.571Z,9.80
2018-11-04T01:23:37.706Z,9.80
2018-11-04T01:26:05.024Z,9.90
2018-11-04T01:28:32.202Z,9.90
2018-11-04T01:30:59.448Z,9.80
2018-11-04T01:33:33.300Z,9.80
2018-11-04T01:36:00.469Z,9.80
2018-11-04T01:38:27.672Z,9.90
2018-11-04T01:40:54.857Z,9.90
2018-11-04T01:43:22.016Z,9.90
2018-11-04T01:45:49.175Z,9.90
2018-11-04T01:48:16.377Z,9.90
2018-11-04T01:50:43.535Z,9.90
2018-11-04T01:53:10.748Z,9.90
2018-11-04T01:55:37.915Z,9.90
2018-11-04T01:58:05.143Z,9.80
2018-11-04T02:00:32.307Z,9.80
2018-11-04T02:02:59.514Z,9.90
2018-11-04T02:05:26.662Z,9.90
2018-11-04T02:07:53.832Z,9.90
2018-11-04T02:10:20.992Z,9.90
2018-11-04T02:12:48.208Z,9.90
2018-11-04T02:15:15.379Z,9.90
2018-11-04T02:17:42.546Z,10.00
2018-11-04T02:20:11.747Z,9.90
2018-11-04T02:22:40.305Z,9.80
2018-11-04T02:25:08.490Z,9.80
2018-11-04T02:27:35.659Z,9.90
2018-11-04T02:30:02.864Z,9.90
2018-11-04T02:32:30.060Z,9.90
2018-11-04T02:34:57.227Z,9.90
2018-11-04T02:37:24.379Z,9.70
2018-11-04T02:39:51.634Z,9.70
2018-11-04T02:42:18.790Z,9.90
2018-11-04T02:44:45.980Z,9.90
2018-11-04T02:47:13.169Z,9.90
2018-11-04T02:49:40.344Z,9.90
2018-11-04T02:52:07.503Z,9.90
2018-11-04T02:54:34.703Z,9.90
2018-11-04T02:57:01.865Z,9.90
2018-11-04T02:59:29.064Z,9.90
2018-11-04T03:01:56.327Z,9.90
2018-11-04T03:04:30.195Z,9.90
2018-11-04T03:06:57.391Z,9.90
2018-11-04T03:09:24.548Z,9.90
2018-11-04T03:11:51.760Z,9.90
2018-11-04T03:14:18.927Z,9.90
2018-11-04T03:16:46.079Z,9.90
2018-11-04T03:19:13.404Z,9.90
2018-11-04T03:21:40.560Z,9.80
2018-11-04T03:24:07.723Z,9.90
2018-11-04T03:26:34.863Z,9.90
2018-11-04T03:29:02.075Z,9.80
2018-11-04T03:31:29.256Z,9.90
2018-11-04T03:33:56.438Z,9.80
2018-11-04T03:36:23.600Z,9.80
2018-11-04T03:38:50.763Z,9.80
2018-11-04T03:41:17.916Z,9.90
2018-11-04T03:43:45.080Z,9.80
2018-11-04T03:46:12.223Z,9.90
2018-11-04T03:48:40.312Z,9.90
2018-11-04T03:51:07.465Z,9.80
2018-11-04T03:53:34.647Z,9.80
2018-11-04T03:56:01.805Z,9.80
2018-11-04T03:58:28.964Z,9.80
2018-11-04T04:00:56.139Z,9.80
2018-11-04T04:03:23.296Z,9.80
2018-11-04T04:05:50.462Z,9.90
2018-11-04T04:08:17.623Z,9.90
2018-11-04T04:10:44.792Z,9.80
2018-11-04T04:15:45.941Z,9.80
2018-11-04T04:18:13.095Z,9.70
2018-11-04T04:20:40.255Z,9.70
2018-11-04T04:23:07.408Z,9.70
2018-11-04T04:25:34.588Z,9.80
2018-11-04T04:28:01.727Z,9.80
2018-11-04T04:30:28.888Z,9.80
2018-11-04T04:32:56.051Z,9.80
2018-11-04T04:35:23.236Z,9.80
2018-11-04T04:37:50.390Z,9.70
2018-11-04T04:40:17.684Z,9.70
2018-11-04T04:42:44.877Z,9.80
2018-11-04T04:45:12.029Z,9.80
2018-11-04T04:47:39.203Z,9.70
2018-11-04T04:50:06.471Z,9.80
2018-11-04T04:52:33.662Z,9.90
2018-11-04T04:55:00.951Z,9.90
2018-11-04T04:57:28.128Z,9.90
2018-11-04T04:59:55.295Z,9.90
2018-11-04T05:02:22.491Z,9.80
2018-11-04T05:04:49.702Z,9.90
2018-11-04T05:07:16.875Z,9.90
2018-11-04T05:09:44.036Z,9.90
2018-11-04T05:12:11.200Z,9.80
2018-11-04T05:14:38.375Z,9.80
2018-11-04T05:17:05.664Z,9.90
2018-11-04T05:19:32.939Z,9.90
2018-11-04T05:22:00.096Z,9.90
2018-11-04T05:24:27.252Z,9.90
2018-11-04T05:26:54.427Z,9.90
2018-11-04T05:29:21.585Z,9.80
2018-11-04T05:31:48.747Z,9.80
2018-11-04T05:34:16.068Z,9.80
2018-11-04T05:36:43.236Z,9.70
2018-11-04T05:39:10.871Z,9.70
2018-11-04T05:41:38.647Z,9.80
2018-11-04T05:44:05.808Z,9.70
2018-11-04T05:46:33.159Z,9.70
2018-11-04T05:49:00.424Z,9.80
2018-11-04T05:51:27.615Z,9.80
2018-11-04T05:53:54.767Z,9.90
2018-11-04T05:56:21.932Z,9.80
2018-11-04T05:58:49.083Z,9.80
2018-11-04T06:01:16.247Z,9.80
2018-11-04T06:03:43.419Z,9.90
2018-11-04T06:06:10.592Z,9.90
2018-11-04T06:08:37.744Z,9.90
2018-11-04T06:11:04.921Z,9.80
2018-11-04T06:13:32.071Z,9.80
2018-11-04T06:15:59.228Z,9.80
2018-11-04T06:18:26.384Z,9.80
2018-11-04T06:20:53.532Z,10.00
2018-11-04T06:23:20.683Z,9.90
2018-11-04T06:25:47.834Z,9.80
2018-11-04T06:28:15.004Z,9.80
2018-11-04T06:30:48.859Z,9.80
2018-11-04T06:33:16.119Z,9.70
2018-11-04T06:35:43.289Z,9.80
2018-11-04T06:38:10.447Z,9.90
2018-11-04T06:40:37.603Z,9.90
2018-11-04T06:43:04.820Z,10.00
2018-11-04T06:45:32.002Z,10.10
2018-11-04T06:47:59.298Z,10.10
2018-11-04T06:50:26.583Z,10.10
2018-11-04T06:52:53.812Z,10.00
2018-11-04T06:55:21.084Z,10.00
2018-11-04T06:57:48.327Z,10.10
2018-11-04T07:00:15.475Z,10.10
2018-11-04T07:02:42.649Z,10.10
2018-11-04T07:05:09.815Z,10.00
2018-11-04T07:07:37.047Z,10.10
2018-11-04T07:10:05.629Z,10.10
2018-11-04T07:12:32.807Z,10.00
2018-11-04T07:14:59.960Z,9.90
2018-11-04T07:17:27.120Z,10.00
2018-11-04T07:19:54.362Z,10.10
2018-11-04T07:22:21.647Z,10.00
2018-11-04T07:24:48.815Z,9.90
2018-11-04T07:27:15.982Z,10.00
2018-11-04T07:29:43.163Z,10.00
2018-11-04T07:32:10.359Z,10.10
2018-11-04T07:34:37.517Z,10.10
2018-11-04T07:37:04.940Z,10.20
2018-11-04T07:39:32.091Z,10.20
2018-11-04T07:41:59.251Z,10.10
2018-11-04T07:44:26.535Z,10.10
2018-11-04T07:46:53.631Z,10.20
2018-11-04T07:49:20.795Z,10.20
2018-11-04T07:51:47.951Z,10.30
2018-11-04T07:54:15.146Z,10.30
2018-11-04T07:56:42.297Z,10.40
2018-11-04T07:59:09.470Z,10.40
2018-11-04T08:01:36.628Z,10.30
2018-11-04T08:04:04.166Z,10.30
2018-11-04T08:06:31.386Z,10.30
2018-11-04T08:08:58.615Z,10.20
2018-11-04T08:11:25.732Z,10.20
2018-11-04T08:13:52.892Z,10.20
2018-11-04T08:16:20.060Z,10.30
2018-11-04T08:18:47.221Z,10.30
2018-11-04T08:21:14.422Z,10.40
2018-11-04T08:23:41.639Z,10.60
2018-11-04T08:26:08.799Z,10.70
2018-11-04T08:28:42.592Z,10.70
2018-11-04T08:31:09.784Z,10.60
2018-11-04T08:33:36.952Z,10.50
2018-11-04T08:36:04.185Z,10.50
2018-11-04T08:38:31.337Z,10.40
2018-11-04T08:40:58.495Z,10.40
2018-11-04T08:43:25.663Z,10.50
2018-11-04T08:45:52.962Z,10.60
2018-11-04T08:48:19.973Z,10.60
2018-11-04T08:50:47.130Z,10.50
2018-11-04T08:53:14.299Z,10.60
2018-11-04T08:55:41.455Z,10.60
2018-11-04T08:58:08.607Z,10.70
2018-11-04T09:00:35.767Z,10.70
2018-11-04T09:03:02.940Z,10.60
2018-11-04T09:05:30.169Z,10.70
2018-11-04T09:07:57.344Z,10.80
2018-11-04T09:10:24.499Z,10.70
2018-11-04T09:12:51.647Z,10.70
2018-11-04T09:15:18.818Z,10.80
2018-11-04T09:17:46.025Z,10.80
2018-11-04T09:20:14.491Z,10.80
2018-11-04T09:22:42.393Z,10.80
2018-11-04T09:25:10.324Z,10.80
2018-11-04T09:27:37.642Z,10.80
2018-11-04T09:30:06.265Z,10.90
2018-11-04T09:32:33.423Z,11.00
2018-11-04T09:35:00.802Z,11.00
2018-11-04T09:37:28.124Z,10.90
2018-11-04T09:39:55.296Z,11.00
2018-11-04T09:42:22.442Z,11.00
2018-11-04T09:44:49.598Z,11.00
2018-11-04T09:47:16.775Z,11.00
2018-11-04T09:49:43.949Z,11.10
2018-11-04T09:52:11.099Z,11.00
2018-11-04T09:54:38.306Z,11.00
2018-11-04T09:57:05.475Z,11.10
2018-11-04T09:59:32.848Z,11.10
2018-11-04T10:02:07.083Z,11.20
2018-11-04T10:04:34.247Z,11.20
2018-11-04T10:07:01.447Z,11.20
2018-11-04T10:09:28.600Z,11.30
2018-11-04T10:11:55.747Z,11.20
2018-11-04T10:14:22.896Z,11.30
2018-11-04T10:16:50.065Z,11.40
2018-11-04T10:19:17.663Z,11.40
2018-11-04T10:21:44.371Z,11.40
2018-11-04T10:24:11.556Z,11.40
2018-11-04T10:26:38.813Z,11.40
2018-11-04T10:29:06.356Z,11.40
2018-11-04T10:31:33.536Z,11.40
2018-11-04T10:34:00.690Z,11.40
2018-11-04T10:36:27.859Z,11.40
2018-11-04T10:38:55.003Z,11.40
2018-11-04T10:41:22.183Z,11.40
2018-11-04T10:43:49.459Z,11.50
2018-11-04T10:46:16.639Z,11.50
2018-11-04T10:48:43.807Z,11.50
2018-11-04T10:51:10.976Z,11.60
2018-11-04T10:53:38.152Z,11.60
2018-11-04T10:56:05.323Z,11.70
2018-11-04T10:58:32.491Z,11.80
2018-11-04T11:01:05.660Z,11.80
2018-11-04T11:03:33.361Z,11.80
2018-11-04T11:06:00.877Z,11.90
2018-11-04T11:08:28.051Z,11.90
2018-11-04T11:10:55.263Z,11.90
2018-11-04T11:13:22.375Z,12.00
2018-11-04T11:15:49.526Z,12.00
2018-11-04T11:18:16.710Z,12.10
2018-11-04T11:20:43.855Z,12.00
2018-11-04T11:23:11.022Z,12.00
2018-11-04T11:25:38.165Z,12.10
2018-11-04T11:28:05.358Z,12.10
2018-11-04T11:30:32.611Z,12.20
2018-11-04T11:32:59.783Z,12.20
2018-11-04T11:35:26.939Z,12.20
2018-11-04T11:37:54.161Z,12.30
2018-11-04T11:40:21.268Z,12.30
2018-11-04T11:42:48.440Z,12.30
2018-11-04T11:45:15.599Z,12.30
2018-11-04T11:47:42.751Z,12.40
2018-11-04T11:50:09.919Z,12.30
2018-11-04T11:52:37.815Z,12.40
2018-11-04T11:55:05.747Z,12.30
2018-11-04T11:57:33.714Z,12.40
2018-11-04T12:02:51.004Z,12.40
2018-11-04T12:05:18.235Z,12.40
2018-11-04T12:07:46.159Z,12.50
2018-11-04T12:10:13.555Z,12.50
2018-11-04T12:12:40.734Z,12.50
2018-11-04T12:15:08.979Z,12.50
2018-11-04T12:17:36.885Z,12.50
2018-11-04T12:20:06.527Z,12.50
2018-11-04T12:22:34.395Z,12.60
2018-11-04T12:25:02.564Z,12.60
2018-11-04T12:27:30.742Z,12.70
2018-11-04T12:29:59.134Z,12.70
2018-11-04T12:32:27.195Z,12.70
2018-11-04T12:34:54.379Z,12.70
2018-11-04T12:37:22.095Z,12.70
2018-11-04T12:39:50.275Z,12.70
2018-11-04T12:42:17.468Z,12.70
2018-11-04T12:44:44.729Z,12.70
2018-11-04T12:47:11.879Z,12.70
2018-11-04T12:49:39.039Z,12.70
2018-11-04T12:52:06.221Z,12.70
2018-11-04T12:54:33.364Z,12.70
2018-11-04T12:57:00.576Z,12.70
2018-11-04T12:59:27.756Z,12.80
2018-11-04T13:01:55.760Z,12.90
2018-11-04T13:04:22.915Z,13.00
2018-11-04T13:06:50.051Z,13.00
2018-11-04T13:09:17.221Z,13.00
2018-11-04T13:11:44.389Z,13.00
2018-11-04T13:14:11.883Z,13.10
2018-11-04T13:16:39.083Z,13.10
2018-11-04T13:19:06.301Z,13.00
2018-11-04T13:21:34.308Z,13.00
2018-11-04T13:24:01.493Z,12.90
2018-11-04T13:26:28.639Z,12.90
2018-11-04T13:28:55.943Z,12.90
2018-11-04T13:31:23.107Z,12.90
2018-11-04T13:33:50.267Z,13.00
2018-11-04T13:36:17.527Z,13.00
2018-11-04T13:38:44.700Z,13.00
2018-11-04T13:41:11.852Z,13.00
2018-11-04T13:43:39.288Z,13.10
2018-11-04T13:46:06.467Z,13.10
2018-11-04T13:48:33.622Z,13.20
2018-11-04T13:51:00.836Z,13.20
2018-11-04T13:53:28.019Z,13.10
2018-11-04T13:55:55.175Z,13.10
2018-11-04T13:58:22.382Z,13.10
2018-11-04T14:00:49.699Z,13.10
2018-11-04T14:03:16.876Z,13.10
2018-11-04T14:05:44.050Z,13.10
2018-11-04T14:08:11.194Z,13.00
2018-11-04T14:10:38.344Z,13.00
2018-11-04T14:13:05.670Z,13.00
2018-11-04T14:15:32.688Z,12.90
2018-11-04T14:17:59.839Z,12.90
2018-11-04T14:20:27.004Z,12.90
2018-11-04T14:22:54.159Z,12.90
2018-11-04T14:25:21.368Z,12.90
2018-11-04T14:27:48.569Z,12.90
2018-11-04T14:30:15.739Z,12.80
2018-11-04T14:32:43.378Z,12.80
2018-11-04T14:35:11.104Z,12.70
2018-11-04T14:37:39.320Z,12.70
2018-11-04T14:40:07.792Z,12.70
2018-11-04T14:42:34.931Z,12.70
2018-11-04T14:45:02.104Z,12.70
2018-11-04T14:47:29.287Z,12.70
2018-11-04T14:49:56.443Z,12.70
2018-11-04T14:52:23.644Z,12.70
2018-11-04T14:54:50.823Z,12.70
2018-11-04T14:57:17.972Z,12.70
2018-11-04T14:59:45.168Z,12.70
2018-11-04T15:02:12.292Z,12.60
2018-11-04T15:04:39.564Z,12.60
2018-11-04T15:07:06.979Z,12.60
2018-11-04T15:09:34.119Z,12.60
2018-11-04T15:12:01.300Z,12.50
2018-11-04T15:14:28.456Z,12.60
2018-11-04T15:16:55.621Z,12.60
2018-11-04T15:19:22.792Z,12.60
2018-11-04T15:21:49.959Z,12.60
2018-11-04T15:26:51.935Z,12.50
2018-11-04T15:29:19.080Z,12.50
2018-11-04T15:31:46.277Z,12.50
2018-11-04T15:34:13.580Z,12.50
2018-11-04T15:36:40.694Z,12.40
2018-11-04T15:39:08.931Z,12.50
2018-11-04T15:41:36.083Z,12.50
2018-11-04T15:44:03.303Z,12.50
2018-11-04T15:46:30.479Z,12.40
2018-11-04T15:48:58.716Z,12.40
2018-11-04T15:51:25.835Z,12.40
2018-11-04T15:53:53.791Z,12.40
2018-11-04T15:56:21.677Z,12.40
2018-11-04T15:58:48.931Z,12.40
2018-11-04T16:01:16.999Z,12.30
2018-11-04T16:03:44.284Z,12.40
2018-11-04T16:06:11.519Z,12.30
2018-11-04T16:08:38.764Z,12.30
2018-11-04T16:11:06.125Z,12.30
2018-11-04T16:13:33.359Z,12.30
2018-11-04T16:16:00.814Z,12.30
2018-11-04T16:18:28.592Z,12.30
2018-11-04T16:20:55.915Z,12.40
2018-11-04T16:23:23.066Z,12.40
2018-11-04T16:25:50.260Z,12.40
2018-11-04T16:28:17.424Z,12.30
2018-11-04T16:30:44.684Z,12.40
2018-11-04T16:33:11.865Z,12.30
2018-11-04T16:35:39.157Z,12.30
2018-11-04T16:38:06.311Z,12.20
2018-11-04T16:40:34.254Z,12.30
2018-11-04T16:43:02.650Z,12.30
2018-11-04T16:45:30.451Z,12.30
2018-11-04T16:47:57.611Z,12.30
2018-11-04T16:50:24.767Z,12.30
2018-11-04T16:52:51.923Z,12.30
2018-11-04T16:55:19.077Z,12.30
2018-11-04T16:57:46.239Z,12.20
2018-11-04T17:00:13.422Z,12.20
2018-11-04T17:02:40.586Z,12.20
2018-11-04T17:05:08.875Z,12.20
2018-11-04T17:07:36.012Z,12.20
2018-11-04T17:10:03.699Z,12.20
2018-11-04T17:12:30.946Z,12.20
2018-11-04T17:14:58.181Z,12.20
2018-11-04T17:19:59.336Z,12.20
2018-11-04T17:22:26.535Z,12.20
2018-11-04T17:24:53.692Z,12.20
2018-11-04T17:27:20.974Z,12.20
2018-11-04T17:29:48.138Z,12.20
2018-11-04T17:32:15.326Z,12.20
2018-11-04T17:34:43.056Z,12.20
2018-11-04T17:37:10.225Z,12.20
2018-11-04T17:39:37.501Z,12.10
2018-11-04T17:42:04.773Z,12.20
2018-11-04T17:44:31.950Z,12.20
2018-11-04T17:46:59.066Z,12.20
2018-11-04T17:49:26.220Z,12.20
2018-11-04T17:51:53.396Z,12.20
2018-11-04T17:54:20.659Z,12.20
2018-11-04T17:56:47.911Z,12.20
2018-11-04T17:59:15.083Z,12.20
2018-11-04T18:05:13.670Z,12.20
2018-11-04T18:07:41.440Z,12.20
2018-11-04T18:10:09.359Z,12.10
2018-11-04T18:12:36.522Z,12.10
2018-11-04T18:15:04.084Z,12.20
2018-11-04T18:17:31.455Z,12.20
2018-11-04T18:19:58.608Z,12.20
2018-11-04T18:22:25.846Z,12.10
2018-11-04T18:24:53.015Z,12.20
2018-11-04T18:27:20.274Z,12.10
2018-11-04T18:29:47.419Z,12.20
2018-11-04T18:32:14.680Z,12.20
2018-11-04T18:34:41.784Z,12.20
2018-11-04T18:37:08.987Z,12.20
2018-11-04T18:39:36.175Z,12.20
2018-11-04T18:42:03.415Z,12.20
2018-11-04T18:44:30.624Z,12.20
2018-11-04T18:46:57.743Z,12.20
2018-11-04T18:49:24.888Z,12.20
2018-11-04T18:51:52.091Z,12.20
2018-11-04T18:54:19.525Z,12.20
2018-11-04T18:56:46.675Z,12.10
2018-11-04T18:59:13.973Z,12.10
2018-11-04T19:01:41.191Z,12.10
2018-11-04T19:04:08.352Z,12.00
2018-11-04T19:06:35.495Z,12.10
2018-11-04T19:09:03.621Z,12.10
2018-11-04T19:11:30.848Z,12.00
2018-11-04T19:13:57.927Z,12.00
2018-11-04T19:16:26.966Z,12.00
2018-11-04T19:18:54.625Z,12.00
2018-11-04T19:21:22.116Z,12.00
2018-11-04T19:23:49.344Z,12.10
2018-11-04T19:26:16.497Z,12.00
2018-11-04T19:28:43.643Z,12.00
2018-11-04T19:31:10.861Z,12.00
2018-11-04T19:33:37.948Z,12.00
2018-11-04T19:36:05.118Z,12.00
2018-11-04T19:38:32.280Z,12.10
2018-11-04T19:40:59.431Z,12.20
2018-11-04T19:43:26.587Z,12.20
2018-11-04T19:45:53.740Z,12.10
2018-11-04T19:48:21.054Z,12.10
2018-11-04T19:50:48.205Z,12.00
2018-11-04T19:53:15.331Z,12.10
2018-11-04T19:55:44.070Z,12.10
2018-11-04T19:58:11.260Z,12.00
2018-11-04T20:00:38.435Z,12.00
2018-11-04T20:03:05.724Z,11.90
2018-11-04T20:05:32.920Z,11.90
2018-11-04T20:08:00.367Z,11.90
2018-11-04T20:10:27.636Z,12.00
2018-11-04T20:13:00.448Z,11.90
2018-11-04T20:15:27.732Z,11.90
2018-11-04T20:17:54.892Z,11.90
2018-11-04T20:20:23.713Z,11.90
2018-11-04T20:22:51.275Z,11.90
2018-11-04T20:26:24.530Z,11.90
2018-11-04T20:28:51.760Z,12.00
2018-11-04T20:32:23.690Z,11.90
2018-11-04T20:34:50.903Z,11.90
2018-11-04T20:37:18.051Z,12.00
2018-11-04T20:39:50.908Z,11.90
2018-11-04T20:42:18.055Z,12.00
2018-11-04T20:44:46.352Z,11.90
2018-11-04T20:47:14.163Z,12.00
2018-11-04T20:49:47.123Z,12.00
2018-11-04T20:52:14.539Z,11.90
2018-11-04T20:54:41.812Z,11.90
2018-11-04T20:57:14.739Z,12.00
2018-11-04T20:59:41.903Z,11.90
2018-11-04T21:02:09.117Z,12.00
2018-11-04T21:04:36.370Z,11.90
2018-11-04T21:07:03.664Z,11.90
2018-11-04T21:09:30.830Z,12.00
2018-11-04T21:11:57.999Z,11.90
2018-11-04T21:14:25.351Z,11.90
2018-11-04T21:16:52.491Z,11.90
2018-11-04T21:19:19.671Z,11.90
2018-11-04T21:21:46.878Z,11.90
2018-11-04T21:24:14.024Z,11.90
2018-11-04T21:26:41.183Z,11.90
2018-11-04T21:29:08.659Z,11.90
2018-11-04T21:32:39.112Z,11.90
2018-11-04T21:35:06.913Z,11.90
2018-11-04T21:37:34.162Z,11.90
2018-11-04T21:40:01.336Z,12.00
2018-11-04T21:42:28.671Z,12.00
2018-11-04T21:44:56.828Z,11.90
2018-11-04T21:47:23.980Z,11.90
2018-11-04T21:49:51.131Z,12.00
2018-11-04T21:52:18.284Z,11.90
2018-11-04T21:54:45.752Z,11.90
2018-11-04T21:57:12.948Z,11.90
2018-11-04T21:59:40.131Z,11.90
2018-11-04T22:02:07.284Z,11.80
2018-11-04T22:04:34.748Z,11.90
2018-11-04T22:07:01.862Z,11.90
2018-11-04T22:09:29.014Z,11.90
2018-11-04T22:11:56.200Z,12.00
2018-11-04T22:14:23.354Z,12.00
2018-11-04T22:16:50.500Z,12.00
2018-11-04T22:19:17.659Z,12.00
2018-11-04T22:21:44.804Z,11.90
2018-11-04T22:24:11.971Z,11.80
2018-11-04T22:26:39.120Z,11.80
2018-11-04T22:29:06.317Z,11.80
2018-11-04T22:31:33.659Z,11.80
2018-11-04T22:34:00.820Z,11.80
2018-11-04T22:36:28.042Z,11.80
2018-11-04T22:38:55.132Z,11.80
2018-11-04T22:41:22.294Z,11.80
2018-11-04T22:43:49.438Z,11.80
2018-11-04T22:46:16.588Z,11.80
2018-11-04T22:48:43.756Z,11.80
2018-11-04T22:51:10.910Z,11.80
2018-11-04T22:53:38.047Z,11.80
2018-11-04T22:56:05.304Z,11.80
2018-11-04T22:58:32.383Z,11.80
2018-11-04T23:01:00.791Z,11.80
2018-11-04T23:03:28.244Z,11.80
2018-11-04T23:08:29.665Z,11.70
2018-11-04T23:10:56.840Z,11.70
2018-11-04T23:13:23.988Z,11.70
2018-11-04T23:15:51.203Z,11.70
2018-11-04T23:18:18.347Z,11.70
2018-11-04T23:20:45.522Z,11.70
2018-11-04T23:23:12.691Z,11.70
2018-11-04T23:25:39.860Z,11.70
2018-11-04T23:28:07.026Z,11.70
2018-11-04T23:30:34.177Z,11.70
2018-11-04T23:33:01.339Z,11.70
2018-11-04T23:35:28.516Z,11.80
2018-11-04T23:37:55.663Z,11.80
2018-11-04T23:40:22.821Z,11.80
2018-11-04T23:42:49.974Z,11.80
2018-11-04T23:45:17.143Z,11.80
2018-11-04T23:47:44.296Z,11.80
2018-11-04T23:50:13.116Z,11.70
2018-11-04T23:52:40.454Z,11.80
2018-11-04T23:55:08.639Z,11.90
2018-11-04T23:57:35.795Z,11.80
